Time;durP1;ratioP1;P1;durP2;ratioP2;P2;SDS_P1;SDS_P2;PMS_P1;PMS_P2;Temp;Humidity;BMP_temperature;BMP_pressure;BME280_temperature;BME280_humidity;BME280_pressure;Samples;Min_cycle;Max_cycle;Signal;HPM_P1;HPM_P2
2024/02/04 00:00:51;;;;;;;2.50;2.30;;;;;;;4.88;100.00;94098.66;2064573;28;20081;-81
2024/02/04 00:02:14;;;;;;;4.00;2.35;;;;;;;4.90;100.00;94093.75;2061899;28;20034;-82
2024/02/04 00:03:34;;;;;;;2.42;2.22;;;;;;;4.85;100.00;94097.47;2100894;28;20031;-82
2024/02/04 00:04:55;;;;;;;3.55;2.33;;;;;;;4.93;100.00;94090.41;2093787;28;20039;-82
2024/02/04 00:06:41;;;;;;;2.40;2.20;;;;;;;5.07;100.00;94092.50;2067550;28;20042;-83
2024/02/04 00:08:02;;;;;;;2.28;2.08;;;;;;;4.90;100.00;94089.22;2103730;28;20477;-81
2024/02/04 00:09:23;;;;;;;2.05;1.95;;;;;;;4.77;100.00;94082.56;2072750;28;20372;-80
2024/02/04 00:10:43;;;;;;;1.98;1.77;;;;;;;4.83;100.00;94096.28;2078956;28;20029;-81
2024/02/04 00:12:06;;;;;;;2.75;2.38;;;;;;;4.75;100.00;94082.94;2105312;28;20358;-80
2024/02/04 00:13:26;;;;;;;4.47;1.92;;;;;;;4.62;100.00;94084.25;2072449;28;20042;-80
2024/02/04 00:14:49;;;;;;;2.88;2.30;;;;;;;4.84;100.00;94085.34;2092781;28;20090;-82
2024/02/04 00:16:10;;;;;;;2.85;2.05;;;;;;;4.93;100.00;94079.81;2105632;28;20165;-82
2024/02/04 00:17:33;;;;;;;1.90;1.73;;;;;;;4.85;100.00;94080.81;2086022;28;20542;-82
2024/02/04 00:18:53;;;;;;;2.22;1.70;;;;;;;4.83;100.00;94080.38;2088995;28;20040;-81
2024/02/04 00:20:14;;;;;;;2.85;2.10;;;;;;;4.80;100.00;94074.69;2087230;28;20033;-82
2024/02/04 00:21:35;;;;;;;2.22;2.00;;;;;;;4.91;100.00;94079.38;2086614;28;20370;-82
2024/02/04 00:22:55;;;;;;;2.20;2.00;;;;;;;4.76;100.00;94081.81;2087522;28;20060;-81
2024/02/04 00:24:18;;;;;;;2.63;2.10;;;;;;;4.87;100.00;94081.22;2069190;28;20077;-81
2024/02/04 00:25:41;;;;;;;3.10;1.80;;;;;;;4.91;100.00;94085.44;2104033;28;20043;-84
2024/02/04 00:27:02;;;;;;;3.20;1.90;;;;;;;4.82;100.00;94079.63;2076842;28;20037;-83
2024/02/04 00:28:22;;;;;;;3.78;2.25;;;;;;;4.87;100.00;94079.31;2066766;28;20487;-83
2024/02/04 00:29:43;;;;;;;3.17;2.05;;;;;;;5.02;100.00;94088.25;2094689;28;20063;-84
2024/02/04 00:31:04;;;;;;;2.47;2.28;;;;;;;4.85;100.00;94081.56;2072714;28;20026;-81
2024/02/04 00:32:25;;;;;;;3.00;2.08;;;;;;;4.78;100.00;94073.50;2101449;28;20113;-83
2024/02/04 00:33:46;;;;;;;3.80;1.90;;;;;;;4.82;100.00;94069.03;2095082;28;20457;-83
2024/02/04 00:35:07;;;;;;;2.20;2.00;;;;;;;4.85;100.00;94073.63;2023540;28;20477;-81
2024/02/04 00:36:27;;;;;;;4.75;2.10;;;;;;;4.91;100.00;94072.19;2032772;27;20031;-82
2024/02/04 00:37:49;;;;;;;2.58;2.10;;;;;;;4.93;100.00;94069.97;2013834;28;20037;-82
2024/02/04 00:39:10;;;;;;;2.70;1.85;;;;;;;4.86;100.00;94071.75;2016491;28;20124;-79
2024/02/04 00:40:30;;;;;;;2.38;2.10;;;;;;;4.69;100.00;94062.41;2035728;28;20117;-79
2024/02/04 00:41:50;;;;;;;2.10;1.90;;;;;;;4.91;100.00;94064.25;2036114;28;20170;-80
2024/02/04 00:43:11;;;;;;;4.93;1.92;;;;;;;4.99;100.00;94068.53;2033192;28;20515;-82
2024/02/04 00:44:32;;;;;;;2.92;1.98;;;;;;;4.97;100.00;94056.78;2018896;28;20163;-81
2024/02/04 00:45:56;;;;;;;3.72;2.63;;;;;;;5.05;100.00;94061.06;2004056;28;21253;-80
2024/02/04 00:47:17;;;;;;;2.55;1.90;;;;;;;4.99;100.00;94063.25;2034312;28;20473;-81
2024/02/04 00:48:40;;;;;;;2.30;2.10;;;;;;;4.92;100.00;94057.84;2011222;28;20099;-80
2024/02/04 00:50:00;;;;;;;2.97;2.13;;;;;;;4.84;100.00;94045.63;2050327;27;22330;-83
2024/02/04 00:51:22;;;;;;;2.55;2.15;;;;;;;4.98;100.00;94040.53;2030221;28;22625;-81
2024/02/04 00:52:42;;;;;;;2.40;2.05;;;;;;;5.10;100.00;94038.78;2037254;28;20929;-81
2024/02/04 00:54:03;;;;;;;4.10;1.83;;;;;;;4.89;100.00;94029.41;2009413;28;20029;-81
2024/02/04 00:55:23;;;;;;;3.00;2.35;;;;;;;4.99;100.00;94026.16;2028383;28;20791;-81
2024/02/04 00:56:44;;;;;;;2.20;1.77;;;;;;;4.80;100.00;94045.56;2040792;28;21918;-83
2024/02/04 00:58:05;;;;;;;3.15;2.90;;;;;;;4.83;100.00;94056.53;2040098;28;20041;-81
2024/02/04 00:59:25;;;;;;;2.85;2.10;;;;;;;4.85;100.00;94056.97;2045015;28;20161;-82
2024/02/04 01:00:46;;;;;;;2.47;1.83;;;;;;;4.93;100.00;94062.03;2027586;28;20076;-80
2024/02/04 01:02:07;;;;;;;3.55;2.45;;;;;;;4.94;100.00;94052.94;2024830;28;22559;-81
2024/02/04 01:03:28;;;;;;;2.53;2.20;;;;;;;4.84;100.00;94055.44;2044064;28;20521;-82
2024/02/04 01:04:50;;;;;;;3.40;2.17;;;;;;;4.76;100.00;94057.22;2027987;28;20092;-82
2024/02/04 01:06:11;;;;;;;3.50;2.30;;;;;;;4.70;100.00;94043.53;2007936;28;20252;-82
2024/02/04 01:07:31;;;;;;;2.50;2.30;;;;;;;4.93;100.00;94034.78;2047054;28;22207;-81
2024/02/04 01:08:58;;;;;;;2.53;2.10;;;;;;;4.76;100.00;94028.84;2025145;28;20156;-82
2024/02/04 01:10:18;;;;;;;5.18;2.15;;;;;;;4.85;100.00;94023.28;2033266;28;20040;-80
2024/02/04 01:11:39;;;;;;;3.60;2.35;;;;;;;4.83;100.00;94027.41;2026796;28;20048;-81
2024/02/04 01:13:00;;;;;;;2.25;2.05;;;;;;;4.83;100.00;94020.25;2012958;28;20156;-82
2024/02/04 01:14:20;;;;;;;3.13;2.45;;;;;;;4.75;100.00;94015.97;2064422;28;20023;-82
2024/02/04 01:15:41;;;;;;;3.50;2.30;;;;;;;4.79;100.00;94016.78;2051786;28;20035;-80
2024/02/04 01:17:02;;;;;;;2.55;2.17;;;;;;;4.87;100.00;94017.63;2068157;28;20119;-81
2024/02/04 01:18:22;;;;;;;2.58;2.15;;;;;;;4.78;100.00;94016.03;2071583;28;20869;-84
2024/02/04 01:19:43;;;;;;;5.07;2.50;;;;;;;4.82;100.00;94017.94;2061867;28;20413;-80
2024/02/04 01:21:04;;;;;;;3.20;2.00;;;;;;;4.82;100.00;94020.59;2092784;28;20422;-79
2024/02/04 01:22:27;;;;;;;3.33;2.20;;;;;;;4.89;100.00;94026.00;2079917;28;20036;-82
2024/02/04 01:23:47;;;;;;;3.45;1.90;;;;;;;4.91;100.00;94027.16;2058892;28;20050;-81
2024/02/04 01:25:08;;;;;;;2.75;1.90;;;;;;;4.96;100.00;94015.50;2102724;28;20036;-80
2024/02/04 01:26:29;;;;;;;2.40;1.70;;;;;;;4.80;100.00;94026.25;2085888;28;20436;-83
2024/02/04 01:27:49;;;;;;;2.13;1.83;;;;;;;4.82;100.00;94016.06;2103115;28;20024;-82
2024/02/04 01:29:10;;;;;;;3.40;2.25;;;;;;;4.68;100.00;94018.50;2066200;28;20030;-82
2024/02/04 01:30:31;;;;;;;2.15;1.95;;;;;;;4.92;100.00;94012.06;2071845;28;20037;-82
2024/02/04 01:31:52;;;;;;;7.70;2.33;;;;;;;4.70;100.00;94017.03;2087883;28;20103;-82
2024/02/04 01:33:12;;;;;;;2.92;1.90;;;;;;;4.54;100.00;94009.22;2077993;28;20030;-82
2024/02/04 01:34:33;;;;;;;2.80;2.05;;;;;;;4.44;100.00;94017.00;2101583;28;20039;-80
2024/02/04 01:35:53;;;;;;;4.35;2.30;;;;;;;4.57;100.00;94015.69;2072099;28;20033;-82
2024/02/04 01:37:14;;;;;;;2.30;1.90;;;;;;;4.52;100.00;94016.78;2080553;28;20041;-81
2024/02/04 01:38:35;;;;;;;3.80;2.15;;;;;;;4.32;100.00;94014.53;2104122;28;20059;-84
2024/02/04 01:39:55;;;;;;;2.40;2.08;;;;;;;4.31;100.00;94027.00;2069354;28;20427;-82
2024/02/04 01:41:16;;;;;;;3.05;2.20;;;;;;;4.34;100.00;94033.47;2099838;28;20093;-82
2024/02/04 01:42:36;;;;;;;2.50;2.30;;;;;;;4.31;100.00;94039.47;2081657;28;20037;-81
2024/02/04 01:43:57;;;;;;;2.20;2.00;;;;;;;4.32;100.00;94049.69;2071637;28;20034;-83
2024/02/04 01:45:18;;;;;;;2.90;2.13;;;;;;;4.27;100.00;94044.72;2108334;28;20035;-82
2024/02/04 01:46:40;;;;;;;2.10;1.90;;;;;;;4.19;100.00;94043.06;2078702;28;20052;-81
2024/02/04 01:48:01;;;;;;;2.78;2.10;;;;;;;4.23;100.00;94044.63;2069642;28;20041;-82
2024/02/04 01:49:22;;;;;;;4.53;2.10;;;;;;;4.24;100.00;94035.56;2075325;28;20038;-82
2024/02/04 01:50:43;;;;;;;3.03;2.05;;;;;;;4.18;100.00;94036.22;2069730;28;20437;-81
2024/02/04 01:52:05;;;;;;;2.50;1.90;;;;;;;4.23;100.00;94039.34;2101875;28;20165;-81
2024/02/04 01:53:27;;;;;;;2.08;1.88;;;;;;;4.54;100.00;94033.06;2088510;28;20358;-81
2024/02/04 01:54:50;;;;;;;2.53;1.85;;;;;;;4.29;100.00;94029.22;2098637;28;20033;-82
2024/02/04 01:56:13;;;;;;;2.35;2.15;;;;;;;4.31;100.00;94024.38;2102057;28;20039;-83
2024/02/04 01:57:37;;;;;;;2.83;2.63;;;;;;;4.24;100.00;94022.34;2074598;28;20037;-82
2024/02/04 01:58:59;;;;;;;2.55;2.15;;;;;;;4.17;100.00;94019.59;2067543;28;20029;-83
2024/02/04 02:00:20;;;;;;;2.25;1.70;;;;;;;4.20;100.00;94012.81;2103727;28;20039;-84
2024/02/04 02:01:43;;;;;;;3.13;2.13;;;;;;;4.44;100.00;94020.41;2072910;28;20141;-83
2024/02/04 02:03:06;;;;;;;1.92;1.70;;;;;;;4.29;100.00;94019.41;2100503;28;20029;-81
2024/02/04 02:04:27;;;;;;;2.65;1.83;;;;;;;4.16;100.00;94017.28;2091395;28;20078;-84
2024/02/04 02:05:47;;;;;;;2.00;1.80;;;;;;;4.05;100.00;94027.69;2108029;28;20221;-81
2024/02/04 02:07:09;;;;;;;2.63;1.83;;;;;;;4.03;100.00;94028.03;2079983;28;20662;-82
2024/02/04 02:08:30;;;;;;;1.95;1.75;;;;;;;4.00;100.00;94028.75;2083402;28;20565;-81
2024/02/04 02:09:50;;;;;;;1.70;1.60;;;;;;;3.95;100.00;94031.69;2104456;28;20024;-82
2024/02/04 02:11:37;;;;;;;1.73;1.63;;;;;;;3.86;100.00;94028.47;2080204;28;20406;-81
2024/02/04 02:13:28;;;;;;;1.80;1.65;;;;;;;3.79;100.00;94021.19;2086235;28;20932;-81
2024/02/04 02:14:57;;;;;;;2.22;1.83;;;;;;;3.66;100.00;94011.13;2092091;28;20481;-83
2024/02/04 02:16:21;;;;;;;5.57;1.92;;;;;;;3.63;100.00;94017.84;2086606;28;20041;-82
2024/02/04 02:17:52;;;;;;;2.17;1.80;;;;;;;3.65;100.00;94026.22;2063226;28;20030;-82
2024/02/04 02:19:48;;;;;;;1.80;1.60;;;;;;;3.74;100.00;94020.72;2065632;28;20037;-80
2024/02/04 02:21:46;;;;;;;1.98;1.60;;;;;;;3.78;100.00;94006.44;2070806;28;20540;-83
2024/02/04 02:23:11;;;;;;;2.20;1.67;;;;;;;3.78;100.00;94005.69;2087812;28;20055;-81
2024/02/04 02:26:20;;;;;;;;;;;;;;;2.90;100.00;94018.66;2143879;27;20126;-81
2024/02/04 02:27:50;;;;;;;3.40;1.70;;;;;;;3.05;100.00;94019.72;2133332;27;19911;-82
2024/02/04 02:29:10;;;;;;;2.88;1.58;;;;;;;3.12;100.00;94027.78;2114371;27;20147;-82
2024/02/04 02:30:31;;;;;;;2.20;2.00;;;;;;;3.12;100.00;94022.50;2103415;28;20024;-83
2024/02/04 02:31:52;;;;;;;3.88;1.83;;;;;;;3.19;100.00;94028.69;2114802;27;20019;-83
2024/02/04 02:33:13;;;;;;;4.57;1.77;;;;;;;3.27;100.00;94030.38;2105378;28;20095;-82
2024/02/04 02:34:34;;;;;;;2.58;1.85;;;;;;;3.25;100.00;94039.78;2103318;28;20113;-81
2024/02/04 02:36:00;;;;;;;2.20;1.65;;;;;;;3.37;100.00;94036.97;2131282;27;20422;-84
2024/02/04 02:37:39;;;;;;;2.03;1.83;;;;;;;3.35;100.00;94031.28;2113550;28;20083;-81
2024/02/04 02:39:23;;;;;;;1.75;1.52;;;;;;;3.35;100.00;94036.56;2107244;28;20031;-84
2024/02/04 02:40:59;;;;;;;3.53;1.63;;;;;;;3.27;100.00;94040.94;2141175;27;20026;-83
2024/02/04 02:42:22;;;;;;;1.88;1.52;;;;;;;3.24;100.00;94040.84;2103667;28;20071;-82
2024/02/04 02:43:44;;;;;;;3.08;1.70;;;;;;;3.20;100.00;94045.31;2094942;28;20448;-80
2024/02/04 02:45:07;;;;;;;1.90;1.63;;;;;;;3.05;100.00;94046.13;2110556;28;20516;-82
2024/02/04 02:46:28;;;;;;;1.80;1.65;;;;;;;2.82;100.00;94046.00;2115609;28;20070;-83
2024/02/04 02:47:51;;;;;;;2.22;1.80;;;;;;;2.82;100.00;94049.41;2104297;28;20484;-83
2024/02/04 02:49:12;;;;;;;3.28;1.80;;;;;;;2.82;100.00;94061.84;2101580;28;20040;-82
2024/02/04 02:50:33;;;;;;;1.83;1.58;;;;;;;2.77;100.00;94057.59;2101233;28;20029;-84
2024/02/04 02:51:53;;;;;;;2.70;1.80;;;;;;;2.75;100.00;94054.50;2137667;27;20547;-83
2024/02/04 02:53:14;;;;;;;1.88;1.70;;;;;;;2.76;100.00;94059.44;2110303;28;20610;-84
2024/02/04 02:54:34;;;;;;;1.85;1.75;;;;;;;2.62;100.00;94058.34;2139257;27;20346;-83
2024/02/04 02:55:55;;;;;;;2.67;1.77;;;;;;;2.59;100.00;94046.63;2132491;27;20408;-83
2024/02/04 02:57:15;;;;;;;1.63;1.52;;;;;;;2.55;100.00;94047.63;2107935;28;20115;-82
2024/02/04 02:58:37;;;;;;;2.05;1.60;;;;;;;2.41;100.00;94043.53;2106806;28;20044;-82
2024/02/04 02:59:58;;;;;;;1.80;1.70;;;;;;;2.43;100.00;94051.13;2125771;27;20069;-84
2024/02/04 03:01:18;;;;;;;2.20;1.67;;;;;;;2.32;100.00;94050.84;2134093;27;20042;-83
2024/02/04 03:02:39;;;;;;;2.20;2.00;;;;;;;2.32;100.00;94040.31;2099581;28;20155;-83
2024/02/04 03:04:00;;;;;;;2.63;1.95;;;;;;;2.24;100.00;94041.25;2098204;28;20071;-81
2024/02/04 03:05:20;;;;;;;2.30;1.90;;;;;;;2.35;100.00;94038.88;2131783;27;20045;-83
2024/02/04 03:06:41;;;;;;;2.13;1.90;;;;;;;2.24;100.00;94044.66;2094807;28;20028;-84
2024/02/04 03:08:02;;;;;;;2.95;1.70;;;;;;;2.21;100.00;94039.28;2098300;28;20504;-84
2024/02/04 03:09:22;;;;;;;5.68;2.40;;;;;;;2.09;100.00;94042.00;2129156;27;20066;-82
2024/02/04 03:10:43;;;;;;;1.70;1.60;;;;;;;1.97;100.00;94038.31;2116884;28;20023;-83
2024/02/04 03:12:03;;;;;;;2.08;1.73;;;;;;;1.98;100.00;94042.50;2141754;27;20054;-81
2024/02/04 03:13:24;;;;;;;3.25;1.80;;;;;;;2.00;100.00;94044.78;2116009;28;20499;-82
2024/02/04 03:14:45;;;;;;;1.88;1.42;;;;;;;1.97;100.00;94040.94;2107726;28;20520;-83
2024/02/04 03:16:12;;;;;;;1.58;1.40;;;;;;;2.00;100.00;94040.28;2133032;27;20367;-81
2024/02/04 03:17:32;;;;;;;1.63;1.52;;;;;;;1.92;100.00;94040.44;2101338;28;20032;-82
2024/02/04 03:18:53;;;;;;;1.98;1.50;;;;;;;1.92;100.00;94041.19;2103438;28;20491;-83
2024/02/04 03:20:14;;;;;;;2.40;1.33;;;;;;;1.76;100.00;94046.47;2115000;27;20106;-83
2024/02/04 03:21:34;;;;;;;1.65;1.55;;;;;;;1.73;100.00;94043.72;2096220;28;20044;-82
2024/02/04 03:22:55;;;;;;;1.60;1.40;;;;;;;1.71;100.00;94038.81;2127041;27;20026;-81
2024/02/04 03:24:16;;;;;;;2.08;1.73;;;;;;;1.65;100.00;94036.72;2094721;28;20055;-81
2024/02/04 03:25:37;;;;;;;1.70;1.40;;;;;;;1.65;100.00;94034.09;2114314;28;20107;-83
2024/02/04 03:26:57;;;;;;;1.50;1.40;;;;;;;1.66;100.00;94040.88;2083127;28;20056;-83
2024/02/04 03:28:19;;;;;;;2.45;1.35;;;;;;;1.71;100.00;94038.81;2106601;28;20042;-83
2024/02/04 03:29:39;;;;;;;1.83;1.33;;;;;;;1.71;100.00;94038.00;2086593;28;20061;-82
2024/02/04 03:31:00;;;;;;;1.48;1.25;;;;;;;1.67;100.00;94052.97;2104921;28;20159;-83
2024/02/04 03:32:21;;;;;;;4.00;1.13;;;;;;;1.59;100.00;94049.38;2111889;28;20032;-83
2024/02/04 03:33:41;;;;;;;2.28;1.40;;;;;;;1.59;100.00;94051.25;2117834;27;20023;-83
2024/02/04 03:35:03;;;;;;;1.25;1.10;;;;;;;1.74;100.00;94053.91;2096337;28;20640;-81
2024/02/04 03:36:24;;;;;;;4.35;1.33;;;;;;;1.65;100.00;94057.81;2103782;28;20042;-81
2024/02/04 03:37:45;;;;;;;1.23;1.10;;;;;;;1.66;100.00;94059.34;2102572;28;20549;-83
2024/02/04 03:39:06;;;;;;;1.30;1.20;;;;;;;1.60;100.00;94052.78;2102335;28;20039;-81
2024/02/04 03:40:26;;;;;;;1.33;1.23;;;;;;;1.61;100.00;94059.56;2122492;27;20020;-81
2024/02/04 03:41:47;;;;;;;3.17;1.38;;;;;;;1.59;100.00;94056.53;2137916;27;20033;-83
2024/02/04 03:43:07;;;;;;;1.67;1.38;;;;;;;1.58;100.00;94070.78;2128916;27;20639;-82
2024/02/04 03:44:29;;;;;;;1.60;1.17;;;;;;;1.62;100.00;94067.13;2123819;27;20861;-83
2024/02/04 03:45:50;;;;;;;1.77;1.40;;;;;;;1.58;100.00;94068.94;2092612;28;20039;-82
2024/02/04 03:47:10;;;;;;;4.30;1.63;;;;;;;1.68;100.00;94070.31;2107519;28;20043;-82
2024/02/04 03:48:31;;;;;;;1.30;1.20;;;;;;;1.68;100.00;94070.31;2108170;28;20039;-83
2024/02/04 03:49:52;;;;;;;1.30;1.15;;;;;;;1.68;100.00;94063.19;2098079;28;20036;-82
2024/02/04 03:51:17;;;;;;;1.38;1.27;;;;;;;1.61;100.00;94064.84;2111763;27;20042;-80
2024/02/04 03:52:38;;;;;;;1.67;1.20;;;;;;;1.64;100.00;94066.81;2083394;28;20045;-80
2024/02/04 03:53:59;;;;;;;3.10;1.30;;;;;;;1.61;100.00;94060.34;2122946;27;20046;-82
2024/02/04 03:55:20;;;;;;;1.30;1.10;;;;;;;1.49;100.00;94063.00;2112443;27;20022;-82
2024/02/04 03:56:41;;;;;;;1.15;1.00;;;;;;;1.49;100.00;94055.09;2124447;27;20462;-82
2024/02/04 03:58:02;;;;;;;1.58;1.27;;;;;;;1.45;100.00;94065.56;2091335;28;20718;-82
2024/02/04 03:59:23;;;;;;;3.17;1.13;;;;;;;1.38;100.00;94046.16;2083221;28;20036;-81
2024/02/04 04:00:43;;;;;;;1.30;1.20;;;;;;;1.29;100.00;94048.16;2122023;27;20094;-82
2024/02/04 04:02:04;;;;;;;1.13;1.02;;;;;;;1.20;100.00;94038.53;2119438;27;20030;-83
2024/02/04 04:03:26;;;;;;;1.45;1.13;;;;;;;1.23;100.00;94045.75;2094543;28;20032;-82
2024/02/04 04:04:48;;;;;;;3.80;2.03;;;;;;;1.22;100.00;94044.22;2109669;27;20060;-82
2024/02/04 04:06:10;;;;;;;1.33;1.23;;;;;;;1.23;100.00;94045.75;2114143;27;20039;-83
2024/02/04 04:07:30;;;;;;;1.30;1.20;;;;;;;1.39;100.00;94039.78;2098050;28;20938;-82
2024/02/04 04:08:51;;;;;;;1.60;1.42;;;;;;;1.34;100.00;94042.66;2113213;27;20507;-81
2024/02/04 04:10:12;;;;;;;1.75;1.30;;;;;;;1.49;100.00;94042.72;2102731;28;20520;-82
2024/02/04 04:11:33;;;;;;;1.98;1.58;;;;;;;1.66;100.00;94046.16;2121659;27;20102;-81
2024/02/04 04:12:53;;;;;;;2.15;1.42;;;;;;;1.63;100.00;94042.34;2090036;28;20048;-81
2024/02/04 04:14:14;;;;;;;2.55;1.52;;;;;;;1.61;100.00;94041.13;2092045;28;20052;-81
2024/02/04 04:15:44;;;;;;;2.58;1.80;;;;;;;1.59;100.00;94040.72;2076152;28;20112;-82
2024/02/04 04:17:04;;;;;;;2.75;2.00;;;;;;;1.68;100.00;94038.69;2127588;27;20407;-81
2024/02/04 04:18:24;;;;;;;4.40;3.78;;;;;;;1.71;100.00;94028.25;2121236;27;20023;-83
2024/02/04 04:19:45;;;;;;;7.20;5.43;;;;;;;1.74;100.00;94024.94;2094307;28;20029;-81
2024/02/04 04:21:06;;;;;;;8.70;5.70;;;;;;;1.68;100.00;94034.19;2123804;27;20027;-83
2024/02/04 04:22:26;;;;;;;9.40;6.10;;;;;;;1.72;100.00;94034.28;2112297;27;20026;-80
2024/02/04 04:23:47;;;;;;;9.77;5.88;;;;;;;1.83;100.00;94039.81;2104331;28;20552;-82
2024/02/04 04:25:09;;;;;;;10.18;6.25;;;;;;;1.86;100.00;94039.16;2124142;27;20035;-81
2024/02/04 04:26:29;;;;;;;9.00;5.80;;;;;;;1.82;100.00;94041.69;2113067;27;20506;-83
2024/02/04 04:27:50;;;;;;;7.00;4.47;;;;;;;1.95;100.00;94035.25;2098803;28;20138;-82
2024/02/04 04:29:11;;;;;;;4.82;3.00;;;;;;;2.14;100.00;94044.38;2109284;27;20034;-81
2024/02/04 04:30:32;;;;;;;3.28;2.97;;;;;;;2.25;100.00;94037.50;2084770;28;20061;-82
2024/02/04 04:31:52;;;;;;;5.00;3.45;;;;;;;2.27;100.00;94036.06;2092591;28;20044;-81
2024/02/04 04:33:13;;;;;;;5.13;2.60;;;;;;;2.31;100.00;94027.47;2102636;28;20445;-82
2024/02/04 04:34:34;;;;;;;5.18;3.13;;;;;;;2.22;100.00;94020.47;2089841;28;20047;-81
2024/02/04 04:36:01;;;;;;;3.33;1.45;;;;;;;2.44;100.00;94028.91;2132422;27;20501;-83
2024/02/04 04:37:22;;;;;;;2.22;1.42;;;;;;;2.45;100.00;94018.00;2115906;27;20113;-82
2024/02/04 04:38:42;;;;;;;3.13;1.38;;;;;;;2.43;100.00;94022.88;2096176;28;20103;-81
2024/02/04 04:40:03;;;;;;;2.58;1.45;;;;;;;2.41;100.00;94017.16;2117946;27;20018;-82
2024/02/04 04:41:24;;;;;;;3.83;1.38;;;;;;;2.41;100.00;94022.44;2101301;28;20357;-82
2024/02/04 04:42:45;;;;;;;2.15;1.90;;;;;;;2.38;100.00;94033.69;2096674;28;20067;-82
2024/02/04 04:44:05;;;;;;;1.92;1.50;;;;;;;2.41;100.00;94032.22;2115285;27;20031;-83
2024/02/04 04:45:26;;;;;;;2.78;1.67;;;;;;;2.33;100.00;94039.22;2121288;27;20056;-82
2024/02/04 04:46:47;;;;;;;3.22;1.50;;;;;;;2.48;100.00;94032.41;2123830;27;20084;-82
2024/02/04 04:48:08;;;;;;;2.67;1.13;;;;;;;2.70;100.00;94029.16;2089711;28;20172;-81
2024/02/04 04:49:29;;;;;;;3.30;1.40;;;;;;;2.57;100.00;94029.59;2106703;27;20467;-82
2024/02/04 04:50:50;;;;;;;3.25;2.10;;;;;;;2.49;100.00;94028.66;2096395;28;20060;-82
2024/02/04 04:52:11;;;;;;;1.48;1.38;;;;;;;2.51;100.00;94027.22;2099668;28;20123;-83
2024/02/04 04:53:31;;;;;;;1.73;1.38;;;;;;;2.55;100.00;94029.16;2099152;28;20507;-82
2024/02/04 04:54:52;;;;;;;4.72;1.33;;;;;;;2.70;100.00;94023.88;2093326;28;20428;-82
2024/02/04 04:56:12;;;;;;;3.40;1.48;;;;;;;2.74;100.00;94018.66;2126393;27;20033;-80
2024/02/04 04:57:42;;;;;;;4.18;1.20;;;;;;;2.70;100.00;94017.81;2096902;28;20032;-81
2024/02/04 04:59:03;;;;;;;6.20;1.58;;;;;;;2.52;100.00;94027.97;2103111;28;20635;-81
2024/02/04 05:00:24;;;;;;;1.60;1.50;;;;;;;2.48;100.00;94019.97;2116069;27;20424;-81
2024/02/04 05:01:48;;;;;;;1.77;1.35;;;;;;;2.50;100.00;94022.25;2092830;28;20446;-80
2024/02/04 05:03:09;;;;;;;2.03;1.30;;;;;;;2.46;100.00;94029.34;2101115;28;20039;-83
2024/02/04 05:04:29;;;;;;;2.10;1.40;;;;;;;2.38;100.00;94038.19;2128194;27;20035;-81
2024/02/04 05:05:50;;;;;;;1.83;1.63;;;;;;;2.39;100.00;94042.38;2086435;28;20489;-81
2024/02/04 05:07:11;;;;;;;1.42;1.30;;;;;;;2.34;100.00;94032.06;2131198;27;20434;-82
2024/02/04 05:08:32;;;;;;;1.50;1.17;;;;;;;2.35;100.00;94029.09;2121705;27;20080;-81
2024/02/04 05:09:53;;;;;;;4.15;2.20;;;;;;;2.43;100.00;94020.22;2114649;27;20109;-80
2024/02/04 05:11:13;;;;;;;2.67;1.10;;;;;;;2.38;100.00;94020.50;2109158;27;20518;-82
2024/02/04 05:12:35;;;;;;;1.27;1.02;;;;;;;2.45;100.00;94023.28;2117299;27;20502;-82
2024/02/04 05:13:56;;;;;;;2.40;1.10;;;;;;;2.41;100.00;94017.16;2128982;27;20025;-83
2024/02/04 05:15:17;;;;;;;2.63;1.23;;;;;;;2.17;100.00;94019.97;2091903;28;20024;-82
2024/02/04 05:16:37;;;;;;;3.47;2.05;;;;;;;2.23;100.00;94010.69;2124680;27;20097;-82
2024/02/04 05:17:58;;;;;;;2.65;2.15;;;;;;;2.35;100.00;94013.25;2121870;27;20046;-82
2024/02/04 05:19:19;;;;;;;4.63;3.58;;;;;;;2.44;100.00;94000.66;2090673;28;20044;-83
2024/02/04 05:20:39;;;;;;;5.63;4.00;;;;;;;2.38;100.00;94007.31;2124551;27;20019;-82
2024/02/04 05:22:00;;;;;;;4.13;3.00;;;;;;;2.32;100.00;94000.75;2083855;28;20036;-81
2024/02/04 05:23:21;;;;;;;4.18;3.20;;;;;;;2.16;100.00;94005.28;2084144;28;20045;-82
2024/02/04 05:24:41;;;;;;;5.30;3.97;;;;;;;2.20;100.00;94003.47;2123484;27;20022;-80
2024/02/04 05:26:05;;;;;;;5.40;3.58;;;;;;;2.17;100.00;94007.56;2104452;28;20735;-82
2024/02/04 05:27:26;;;;;;;4.10;3.70;;;;;;;2.23;100.00;94011.47;2123401;27;20344;-82
2024/02/04 05:28:46;;;;;;;5.57;3.97;;;;;;;2.24;100.00;94007.72;2124378;27;20090;-80
2024/02/04 05:30:07;;;;;;;5.38;4.32;;;;;;;2.38;100.00;94007.31;2085905;28;20045;-83
2024/02/04 05:31:28;;;;;;;4.68;3.97;;;;;;;2.20;100.00;94004.25;2121371;27;20430;-81
2024/02/04 05:32:48;;;;;;;5.60;4.65;;;;;;;2.10;100.00;94003.97;2103001;28;20036;-80
2024/02/04 05:34:10;;;;;;;6.35;4.60;;;;;;;2.11;100.00;94008.94;2132229;27;20021;-83
2024/02/04 05:35:31;;;;;;;7.78;4.38;;;;;;;2.17;100.00;94019.97;2118936;27;20030;-84
2024/02/04 05:36:51;;;;;;;6.30;4.32;;;;;;;2.15;100.00;94024.81;2100554;28;20411;-83
2024/02/04 05:38:12;;;;;;;4.85;4.22;;;;;;;2.15;100.00;94032.72;2123998;27;20026;-83
2024/02/04 05:39:33;;;;;;;4.97;3.97;;;;;;;2.14;100.00;94031.97;2117073;27;20563;-83
2024/02/04 05:40:53;;;;;;;5.05;4.03;;;;;;;2.20;100.00;94041.16;2091912;28;20089;-83
2024/02/04 05:42:14;;;;;;;4.82;4.05;;;;;;;2.11;100.00;94043.22;2129964;27;20034;-82
2024/02/04 05:43:34;;;;;;;7.55;3.78;;;;;;;2.06;100.00;94035.53;2121900;27;20035;-82
2024/02/04 05:44:55;;;;;;;5.70;4.15;;;;;;;1.95;100.00;94031.88;2110110;27;20027;-84
2024/02/04 05:46:16;;;;;;;4.53;3.90;;;;;;;1.91;100.00;94039.69;2112614;27;20042;-82
2024/02/04 05:47:36;;;;;;;4.80;3.63;;;;;;;1.92;100.00;94037.81;2131371;27;20059;-83
2024/02/04 05:48:58;;;;;;;6.03;4.38;;;;;;;2.00;100.00;94039.53;2108650;27;20039;-83
2024/02/04 05:50:19;;;;;;;4.38;3.75;;;;;;;1.97;100.00;94046.22;2104664;28;20031;-82
2024/02/04 05:51:41;;;;;;;4.85;4.05;;;;;;;1.83;100.00;94045.88;2093609;28;20059;-82
2024/02/04 05:53:02;;;;;;;6.00;4.25;;;;;;;1.80;100.00;94051.81;2089805;28;20028;-81
2024/02/04 05:54:23;;;;;;;5.93;4.47;;;;;;;1.79;100.00;94049.50;2088494;28;20037;-83
2024/02/04 05:55:47;;;;;;;4.97;4.10;;;;;;;1.68;100.00;94052.63;2121496;27;20055;-83
2024/02/04 05:57:07;;;;;;;6.05;4.22;;;;;;;1.66;100.00;94061.97;2116042;27;20054;-83
2024/02/04 05:58:28;;;;;;;5.03;4.47;;;;;;;1.69;100.00;94069.97;2130477;27;20054;-83
2024/02/04 05:59:59;;;;;;;5.18;4.45;;;;;;;1.62;100.00;94076.91;2096429;28;20078;-83
2024/02/04 06:01:20;;;;;;;6.95;4.00;;;;;;;1.74;100.00;94067.09;2101162;28;20113;-83
2024/02/04 06:02:42;;;;;;;6.15;4.43;;;;;;;1.60;100.00;94069.34;2089751;28;20068;-83
2024/02/04 06:04:03;;;;;;;5.25;4.28;;;;;;;1.64;100.00;94072.09;2108869;27;20031;-81
2024/02/04 06:05:24;;;;;;;5.85;4.15;;;;;;;1.61;100.00;94080.66;2102063;28;20036;-82
2024/02/04 06:06:46;;;;;;;5.28;4.35;;;;;;;1.55;100.00;94082.00;2094015;28;20128;-82
2024/02/04 06:08:06;;;;;;;6.00;4.05;;;;;;;1.47;100.00;94086.31;2085205;28;20109;-83
2024/02/04 06:09:27;;;;;;;6.40;4.40;;;;;;;1.47;100.00;94089.69;2124974;27;20015;-82
2024/02/04 06:10:48;;;;;;;4.68;3.95;;;;;;;1.51;100.00;94090.56;2093684;28;20068;-82
2024/02/04 06:12:08;;;;;;;5.93;5.18;;;;;;;1.46;100.00;94088.16;2098611;28;20385;-81
2024/02/04 06:13:29;;;;;;;5.65;4.30;;;;;;;1.44;100.00;94085.09;2096563;28;20064;-83
2024/02/04 06:14:50;;;;;;;5.72;3.95;;;;;;;1.39;100.00;94081.94;2095759;28;20045;-81
2024/02/04 06:16:11;;;;;;;5.28;4.38;;;;;;;1.36;100.00;94088.66;2093963;28;20090;-83
2024/02/04 06:17:32;;;;;;;5.38;4.10;;;;;;;1.39;100.00;94092.47;2118911;27;20035;-81
2024/02/04 06:18:55;;;;;;;6.22;4.93;;;;;;;1.57;100.00;94100.88;2094958;28;20036;-82
2024/02/04 06:20:33;;;;;;;6.82;4.35;;;;;;;1.51;100.00;94095.84;2103863;27;20026;-81
2024/02/04 06:21:53;;;;;;;7.90;4.50;;;;;;;1.44;100.00;94103.53;2103008;28;20071;-82
2024/02/04 06:23:15;;;;;;;4.95;3.78;;;;;;;1.68;100.00;94107.97;2100732;28;20106;-82
2024/02/04 06:24:37;;;;;;;6.18;3.70;;;;;;;1.61;100.00;94099.88;2132621;27;20385;-81
2024/02/04 06:25:58;;;;;;;4.93;4.00;;;;;;;1.55;100.00;94103.09;2098385;28;20520;-82
2024/02/04 06:27:18;;;;;;;5.40;3.75;;;;;;;1.55;100.00;94100.44;2094526;28;20036;-80
2024/02/04 06:28:39;;;;;;;7.10;3.80;;;;;;;1.46;100.00;94109.25;2109607;27;20031;-83